Time;durP1;ratioP1;P1;durP2;ratioP2;P2;SDS_P1;SDS_P2;PMS_P1;PMS_P2;Temp;Humidity;BMP_temperature;BMP_pressure;BME280_temperature;BME280_humidity;BME280_pressure;Samples;Min_cycle;Max_cycle;Signal;HPM_P1;HPM_P2
2022/01/28 00:05:39;;;;;;;12.65;2.55;;;;;;;2.93;87.73;99390.38;4971698;28;20046;-86
2022/01/28 00:08:05;;;;;;;10.85;2.20;;;;;;;3.26;87.40;99446.09;4946436;28;20030;-88
2022/01/28 00:10:32;;;;;;;7.80;2.33;;;;;;;3.25;87.60;99447.13;4978322;28;20049;-86
2022/01/28 00:38:08;;;;;;;7.35;2.38;;;;;;;3.19;87.04;99442.63;4978434;28;20057;-87
2022/01/28 00:40:23;;;;;;;11.65;2.70;;;;;;;3.19;86.88;99432.84;4977880;28;20046;-87
2022/01/28 00:42:48;;;;;;;13.88;3.63;;;;;;;3.12;86.59;99436.44;4961048;28;20533;-87
2022/01/28 00:45:13;;;;;;;13.77;2.75;;;;;;;3.15;86.99;99457.97;4960874;28;20038;-86
2022/01/28 00:47:39;;;;;;;14.02;2.90;;;;;;;3.18;86.85;99454.16;4959023;28;20220;-87
2022/01/28 00:50:05;;;;;;;13.80;2.78;;;;;;;3.17;87.60;99445.41;4976774;28;20058;-88
2022/01/28 00:52:31;;;;;;;11.60;4.15;;;;;;;2.89;86.69;99405.75;4960964;28;20474;-86
2022/01/28 00:54:56;;;;;;;11.48;2.80;;;;;;;2.98;86.89;99441.56;4975659;28;20090;-86
2022/01/28 00:57:21;;;;;;;17.05;4.47;;;;;;;3.18;86.67;99491.06;4967796;28;20033;-87
2022/01/28 00:59:47;;;;;;;13.55;2.97;;;;;;;3.14;86.04;99477.44;4977527;28;20509;-87
2022/01/28 01:02:12;;;;;;;13.68;2.92;;;;;;;3.09;86.45;99471.09;4949800;28;20029;-87
2022/01/28 01:04:40;;;;;;;9.48;2.90;;;;;;;3.08;86.03;99464.97;4970678;28;20030;-87
2022/01/28 01:07:05;;;;;;;11.55;3.17;;;;;;;3.16;85.70;99496.53;4978561;28;20038;-87
2022/01/28 01:09:30;;;;;;;15.68;3.78;;;;;;;2.99;85.33;99500.41;4941890;28;20055;-89
2022/01/28 01:11:56;;;;;;;14.13;2.65;;;;;;;3.08;84.98;99494.00;4961811;28;20034;-89
2022/01/28 01:14:21;;;;;;;13.43;2.72;;;;;;;3.14;84.62;99521.47;4963185;28;20026;-89
2022/01/28 01:19:35;;;;;;;19.48;2.95;;;;;;;3.06;84.40;99524.22;4976767;28;20591;-89
2022/01/28 01:22:01;;;;;;;13.10;2.60;;;;;;;3.10;84.82;99536.03;4960564;28;20034;-89
2022/01/28 01:24:34;;;;;;;12.57;2.70;;;;;;;3.08;84.73;99545.94;4960727;28;20030;-90
2022/01/28 01:27:00;;;;;;;15.60;3.58;;;;;;;3.02;84.43;99550.09;4970388;28;20022;-87
2022/01/28 01:29:26;;;;;;;19.95;3.60;;;;;;;2.75;84.63;99522.56;4961081;28;20150;-86
2022/01/28 01:32:00;;;;;;;19.23;3.08;;;;;;;3.08;84.36;99569.66;4957633;28;20122;-86
2022/01/28 01:34:25;;;;;;;10.30;3.45;;;;;;;3.04;85.02;99561.28;4950715;28;20078;-86
2022/01/28 01:36:51;;;;;;;14.50;3.28;;;;;;;3.05;84.49;99570.84;4982333;28;20077;-87
2022/01/28 01:39:22;;;;;;;18.05;3.15;;;;;;;3.07;84.40;99578.56;4940974;28;20663;-86
2022/01/28 01:41:55;;;;;;;18.13;4.30;;;;;;;3.08;84.46;99582.84;4955593;28;20026;-88
2022/01/28 01:52:02;;;;;;;18.00;3.05;;;;;;;3.04;84.50;99577.94;4978101;28;20096;-87
2022/01/28 01:52:43;;;;;;;17.27;3.78;;;;;;;2.69;84.56;99540.91;4975964;28;20111;-87
2022/01/28 01:55:09;;;;;;;8.20;2.78;;;;;;;3.03;84.84;99592.13;4975660;28;20395;-87
2022/01/28 01:57:35;;;;;;;12.63;2.95;;;;;;;3.06;84.94;99590.13;4989133;28;20447;-87
2022/01/28 02:00:00;;;;;;;9.25;2.65;;;;;;;2.62;84.71;99519.75;4962616;28;20120;-86
2022/01/28 02:02:26;;;;;;;13.13;3.00;;;;;;;2.95;84.49;99567.66;4958709;28;20070;-87
2022/01/28 02:04:52;;;;;;;7.90;3.33;;;;;;;3.06;84.90;99587.50;4956462;28;20034;-85
2022/01/28 02:07:19;;;;;;;11.35;3.13;;;;;;;3.09;84.70;99587.13;4971566;28;20030;-85
2022/01/28 02:09:44;;;;;;;12.65;3.00;;;;;;;3.07;84.04;99582.03;4958814;28;20035;-85
2022/01/28 02:12:10;;;;;;;10.48;2.78;;;;;;;3.09;84.29;99600.28;4956863;28;20519;-86
2022/01/28 02:14:36;;;;;;;12.88;4.13;;;;;;;2.82;84.62;99534.03;4966996;28;20031;-88
2022/01/28 02:17:02;;;;;;;11.38;3.33;;;;;;;3.12;84.38;99584.13;4958715;28;20065;-88
2022/01/28 02:19:28;;;;;;;12.70;3.40;;;;;;;2.69;84.70;99528.56;4955041;28;20034;-88
2022/01/28 02:21:54;;;;;;;12.27;3.10;;;;;;;3.08;84.39;99593.41;4955401;28;20066;-86
2022/01/28 02:24:29;;;;;;;10.85;3.95;;;;;;;3.11;84.36;99595.66;4960360;28;20034;-88
2022/01/28 02:26:55;;;;;;;14.25;3.15;;;;;;;3.13;84.00;99591.00;4975562;28;20497;-87
2022/01/28 02:29:32;;;;;;;12.23;2.80;;;;;;;3.04;83.57;99592.94;4959032;28;20027;-87
2022/01/28 02:31:59;;;;;;;14.65;3.30;;;;;;;3.11;83.98;99608.84;4961088;28;20042;-88
2022/01/28 02:34:25;;;;;;;13.05;3.25;;;;;;;2.78;84.26;99560.91;4975047;28;20032;-87
2022/01/28 02:36:51;;;;;;;10.82;3.30;;;;;;;3.13;84.20;99615.56;4964341;28;20031;-88
2022/01/28 02:39:16;;;;;;;17.13;3.55;;;;;;;3.07;84.78;99603.13;4960407;28;20093;-88
2022/01/28 02:41:45;;;;;;;12.68;3.22;;;;;;;3.04;84.50;99595.56;4975010;28;20556;-87
2022/01/28 02:46:55;;;;;;;11.23;2.63;;;;;;;3.09;84.28;99624.03;4970372;28;20041;-88
2022/01/28 02:49:21;;;;;;;17.67;2.95;;;;;;;3.09;84.20;99610.84;4941986;28;20038;-88
2022/01/28 02:51:47;;;;;;;9.10;2.72;;;;;;;3.09;84.43;99614.31;4988663;28;20022;-89
2022/01/28 02:54:16;;;;;;;17.55;3.28;;;;;;;3.08;84.10;99620.56;4973031;28;20032;-88
2022/01/28 02:56:49;;;;;;;15.63;3.53;;;;;;;3.09;84.01;99618.75;4948792;28;20026;-90
2022/01/28 02:59:14;;;;;;;13.82;2.80;;;;;;;3.06;84.12;99624.41;4979012;28;20057;-90
2022/01/28 03:01:40;;;;;;;13.27;3.53;;;;;;;3.01;83.96;99627.59;4982586;28;20471;-89
2022/01/28 03:06:38;;;;;;;9.55;3.10;;;;;;;3.02;84.24;99621.31;5012398;28;20050;-86
2022/01/28 03:09:16;;;;;;;12.48;3.75;;;;;;;3.12;84.28;99639.50;4971301;28;20037;-86
2022/01/28 03:11:43;;;;;;;19.02;3.38;;;;;;;3.09;84.54;99648.59;5000876;28;20113;-86
2022/01/28 03:19:26;;;;;;;16.05;3.08;;;;;;;3.03;84.71;99650.16;5015308;28;20109;-87
2022/01/28 03:21:56;;;;;;;17.92;3.65;;;;;;;3.02;84.70;99663.50;4983359;28;20052;-87
2022/01/28 03:24:23;;;;;;;14.88;3.30;;;;;;;3.02;85.15;99666.13;5004516;28;20625;-86
2022/01/28 03:26:52;;;;;;;18.10;3.25;;;;;;;3.00;85.09;99665.50;4981304;28;20025;-85
2022/01/28 03:29:17;;;;;;;13.20;2.85;;;;;;;3.01;85.46;99653.97;4994532;28;20033;-85
2022/01/28 03:31:43;;;;;;;11.20;3.58;;;;;;;2.98;84.87;99663.03;5013164;28;20050;-85
2022/01/28 03:34:08;;;;;;;16.85;3.22;;;;;;;2.98;85.23;99672.75;4977374;28;20030;-85
2022/01/28 03:36:34;;;;;;;11.02;3.15;;;;;;;2.96;85.11;99678.22;4980454;28;20033;-88
2022/01/28 03:39:00;;;;;;;15.63;3.10;;;;;;;2.96;84.96;99672.94;5014751;28;20025;-88
2022/01/28 03:41:25;;;;;;;10.02;3.10;;;;;;;3.01;84.73;99677.69;4984414;28;20397;-88
2022/01/28 03:43:58;;;;;;;11.63;3.47;;;;;;;2.99;85.10;99693.66;5002097;28;20037;-88
2022/01/28 03:46:25;;;;;;;10.32;2.83;;;;;;;3.01;84.96;99690.88;5001765;28;20034;-87
2022/01/28 03:48:51;;;;;;;21.17;4.47;;;;;;;2.94;84.96;99693.41;5001802;28;20097;-87
2022/01/28 03:51:16;;;;;;;18.92;3.90;;;;;;;2.98;85.17;99704.41;4985841;28;20032;-87
2022/01/28 03:53:42;;;;;;;13.13;2.80;;;;;;;2.92;85.54;99694.56;4978423;28;20037;-87
2022/01/28 03:56:07;;;;;;;14.57;2.95;;;;;;;2.90;85.20;99683.41;4968942;28;20038;-88
2022/01/28 03:58:32;;;;;;;14.68;3.85;;;;;;;2.98;84.92;99704.41;4994927;28;20026;-88
2022/01/28 04:00:59;;;;;;;16.55;2.72;;;;;;;2.97;84.98;99705.41;4985642;28;20105;-88
2022/01/28 04:13:53;;;;;;;23.02;4.50;;;;;;;2.78;85.00;99713.81;5018066;28;20489;-88
2022/01/28 04:18:48;;;;;;;19.27;3.47;;;;;;;2.91;84.84;99746.47;5001511;28;20532;-88
2022/01/28 04:21:13;;;;;;;10.40;2.92;;;;;;;2.73;84.79;99726.72;5000550;28;20069;-88
2022/01/28 04:23:39;;;;;;;29.92;4.43;;;;;;;2.92;84.83;99773.66;5016639;28;20061;-87
2022/01/28 04:26:04;;;;;;;18.80;3.60;;;;;;;2.92;84.90;99750.78;4985074;28;20034;-88
2022/01/28 04:28:33;;;;;;;14.95;3.55;;;;;;;2.91;84.81;99754.38;4984745;28;20032;-89
2022/01/28 04:30:59;;;;;;;12.45;3.78;;;;;;;2.60;84.65;99702.75;5017788;28;20056;-88
2022/01/28 04:33:26;;;;;;;25.55;3.58;;;;;;;2.28;84.98;99651.13;5001007;28;20022;-88
2022/01/28 04:35:54;;;;;;;15.07;3.00;;;;;;;2.67;85.07;99730.84;5001383;28;20030;-88
2022/01/28 04:38:33;;;;;;;16.95;3.85;;;;;;;2.69;84.99;99735.94;5017402;28;20506;-88
2022/01/28 04:41:26;;;;;;;17.88;3.50;;;;;;;2.66;84.59;99739.78;4988850;28;20032;-89
2022/01/28 04:43:59;;;;;;;18.23;3.63;;;;;;;2.92;85.01;99787.69;5017861;28;20148;-88
2022/01/28 04:49:54;;;;;;;12.90;2.85;;;;;;;2.50;84.34;99724.06;4996018;28;20037;-87
2022/01/28 04:55:07;;;;;;;17.67;4.05;;;;;;;2.41;84.92;99713.75;4985511;28;20029;-89
2022/01/28 05:06:05;;;;;;;13.98;4.13;;;;;;;2.57;84.80;99763.72;5002924;28;20041;-89
2022/01/28 05:14:02;;;;;;;14.10;3.75;;;;;;;2.30;84.44;99730.78;5003879;28;20044;-89
2022/01/28 05:25:11;;;;;;;20.20;3.90;;;;;;;2.78;84.44;99837.69;5003208;28;20087;-88
2022/01/28 05:27:40;;;;;;;12.30;3.42;;;;;;;2.79;84.44;99839.34;5002990;28;20033;-88
2022/01/28 05:30:06;;;;;;;17.50;4.40;;;;;;;2.68;83.96;99808.09;4987582;28;20552;-90
2022/01/28 05:32:32;;;;;;;11.57;3.50;;;;;;;2.43;84.06;99778.44;5000706;28;20030;-88
2022/01/28 05:34:59;;;;;;;11.10;3.10;;;;;;;2.92;84.16;99858.03;5001079;28;20034;-88
2022/01/28 05:37:27;;;;;;;21.13;4.00;;;;;;;2.64;84.46;99815.56;4967199;28;20037;-89
2022/01/28 05:39:53;;;;;;;31.50;8.52;;;;;;;2.44;84.31;99774.00;5000458;28;20030;-88
2022/01/28 05:42:18;;;;;;;13.40;4.40;;;;;;;2.69;84.37;99815.81;4985235;28;20072;-86
2022/01/28 05:44:44;;;;;;;19.10;5.25;;;;;;;2.96;84.50;99864.59;4983526;28;20064;-86
2022/01/28 05:47:14;;;;;;;15.82;3.70;;;;;;;2.93;84.55;99865.75;4993770;28;20124;-86
2022/01/28 05:49:41;;;;;;;24.20;4.50;;;;;;;2.89;84.16;99861.84;4970072;28;20030;-85
2022/01/28 05:52:07;;;;;;;31.83;4.25;;;;;;;2.84;84.11;99856.25;5001785;28;20029;-86
2022/01/28 05:54:33;;;;;;;19.33;3.72;;;;;;;2.62;83.98;99822.78;5018287;28;20398;-85
2022/01/28 05:56:58;;;;;;;12.95;5.07;;;;;;;2.77;83.89;99843.97;5001369;28;20080;-86
2022/01/28 05:59:24;;;;;;;15.32;3.58;;;;;;;2.88;84.02;99870.72;4984860;28;20121;-85
2022/01/28 06:01:49;;;;;;;19.13;4.70;;;;;;;2.95;83.75;99890.13;4984487;28;20135;-84
2022/01/28 06:04:15;;;;;;;10.63;3.53;;;;;;;2.87;83.74;99874.38;4984778;28;20033;-84
2022/01/28 06:06:41;;;;;;;18.23;4.90;;;;;;;2.80;83.50;99864.69;4965394;28;20049;-84
2022/01/28 06:09:07;;;;;;;15.88;4.05;;;;;;;2.96;84.08;99888.34;4967897;28;20064;-84
2022/01/28 06:11:32;;;;;;;9.68;3.20;;;;;;;2.85;83.96;99881.66;4999015;28;20102;-84
2022/01/28 06:13:58;;;;;;;18.15;3.22;;;;;;;2.87;83.85;99895.47;4993049;28;20029;-84
2022/01/28 06:16:23;;;;;;;17.20;3.42;;;;;;;2.90;83.38;99907.50;5001824;28;20398;-84
2022/01/28 06:18:49;;;;;;;10.07;3.10;;;;;;;2.80;83.57;99878.69;5001049;28;20030;-85
2022/01/28 06:21:14;;;;;;;13.40;3.35;;;;;;;2.93;84.09;99910.59;4992527;28;20026;-85
2022/01/28 06:23:40;;;;;;;14.18;3.15;;;;;;;2.95;83.76;99923.59;4982428;28;20033;-85
2022/01/28 06:26:05;;;;;;;10.52;2.67;;;;;;;2.94;83.79;99925.44;4971728;28;20066;-86
2022/01/28 06:28:32;;;;;;;18.92;3.40;;;;;;;2.93;83.86;99936.94;5018317;28;20022;-86
2022/01/28 06:30:57;;;;;;;16.92;4.05;;;;;;;2.94;83.84;99945.69;5001207;28;20511;-86
2022/01/28 06:33:23;;;;;;;14.70;3.28;;;;;;;2.94;83.82;99943.06;4964491;28;20081;-85
2022/01/28 06:35:48;;;;;;;17.42;3.67;;;;;;;2.61;83.52;99899.38;4981347;28;20069;-85
2022/01/28 06:38:14;;;;;;;14.32;3.75;;;;;;;2.83;83.43;99944.25;4983313;28;20030;-84
2022/01/28 06:40:40;;;;;;;12.35;4.13;;;;;;;2.86;83.46;99938.63;4999975;28;20098;-86
2022/01/28 06:43:13;;;;;;;15.15;4.20;;;;;;;2.67;82.97;99917.97;4997181;28;20083;-85
2022/01/28 06:45:42;;;;;;;15.65;4.60;;;;;;;2.92;82.96;99939.78;5015738;28;20060;-86
2022/01/28 06:48:10;;;;;;;13.40;3.38;;;;;;;2.91;82.76;99941.59;4967769;28;20036;-86
2022/01/28 06:50:37;;;;;;;16.23;3.95;;;;;;;2.66;82.96;99905.81;4999883;28;20026;-86
2022/01/28 06:53:02;;;;;;;17.58;3.65;;;;;;;2.80;83.08;99944.59;5015806;28;20034;-83
2022/01/28 06:55:28;;;;;;;13.90;4.43;;;;;;;2.93;83.38;99955.41;4994019;28;20037;-85
2022/01/28 06:57:56;;;;;;;18.67;3.78;;;;;;;2.92;83.04;99956.41;5002931;28;20018;-84
2022/01/28 07:00:22;;;;;;;16.45;3.58;;;;;;;2.91;83.14;99951.28;4988130;28;20038;-85
2022/01/28 07:02:49;;;;;;;24.13;4.78;;;;;;;2.92;83.64;99947.69;5003480;28;20029;-85
2022/01/28 07:05:15;;;;;;;23.33;6.25;;;;;;;2.85;82.91;99959.91;4970830;28;20096;-85
2022/01/28 07:07:41;;;;;;;25.23;5.25;;;;;;;2.92;83.22;99974.03;4997422;28;20062;-85
2022/01/28 07:10:06;;;;;;;22.55;5.03;;;;;;;2.68;82.76;99940.72;4981986;28;20030;-86
2022/01/28 07:12:32;;;;;;;17.25;4.55;;;;;;;2.91;83.25;99973.22;4985543;28;20117;-84
2022/01/28 07:14:57;;;;;;;19.25;4.07;;;;;;;2.92;83.06;99980.16;4984801;28;20045;-85
2022/01/28 07:17:23;;;;;;;20.02;4.88;;;;;;;2.91;83.06;99983.78;4977633;28;20030;-86
2022/01/28 07:19:48;;;;;;;19.38;6.47;;;;;;;2.86;82.97;99980.00;4979106;28;20319;-86
2022/01/28 07:22:14;;;;;;;15.27;3.88;;;;;;;2.91;83.26;99994.31;4974727;28;20490;-86
2022/01/28 07:24:39;;;;;;;19.58;3.63;;;;;;;2.87;83.01;99987.75;5002287;28;20029;-87
2022/01/28 07:27:06;;;;;;;31.88;5.72;;;;;;;2.81;82.84;99975.25;4980094;28;20125;-87
2022/01/28 07:29:33;;;;;;;13.95;4.55;;;;;;;2.92;82.92;100000.41;5004577;28;20033;-88
2022/01/28 07:32:00;;;;;;;11.80;3.67;;;;;;;2.53;82.59;99938.97;4991758;28;20061;-87
2022/01/28 07:34:26;;;;;;;17.25;3.70;;;;;;;2.94;82.83;100001.06;5019492;28;20164;-86
2022/01/28 07:36:51;;;;;;;20.92;4.10;;;;;;;2.93;82.60;100000.22;4986294;28;20033;-85
2022/01/28 07:39:17;;;;;;;20.75;4.32;;;;;;;2.93;82.54;100013.41;5003467;28;20120;-84
2022/01/28 07:41:43;;;;;;;10.35;3.22;;;;;;;2.82;82.88;99990.06;4986619;28;20430;-83
2022/01/28 07:44:09;;;;;;;19.95;6.50;;;;;;;2.92;82.95;100016.22;5006586;28;20390;-84
2022/01/28 07:46:34;;;;;;;19.13;3.92;;;;;;;2.94;82.91;100012.44;5002489;28;20040;-84
2022/01/28 07:49:01;;;;;;;14.00;3.67;;;;;;;2.91;82.56;100009.31;5003093;28;20109;-85
2022/01/28 07:51:26;;;;;;;26.98;4.78;;;;;;;2.97;82.48;100009.44;5005538;28;20026;-85
2022/01/28 07:53:52;;;;;;;13.23;4.72;;;;;;;2.98;82.68;100034.84;4997502;28;20045;-85
2022/01/28 07:56:18;;;;;;;19.95;4.65;;;;;;;2.96;82.96;100030.72;4985519;28;20120;-86
2022/01/28 07:58:43;;;;;;;22.70;4.28;;;;;;;2.95;83.13;100036.97;4986578;28;20034;-84
2022/01/28 08:01:09;;;;;;;19.52;5.25;;;;;;;2.88;83.50;100036.81;5012840;28;20125;-86
2022/01/28 08:03:35;;;;;;;16.13;4.03;;;;;;;2.95;82.87;100053.63;4986573;28;20088;-86
2022/01/28 08:06:00;;;;;;;27.33;5.00;;;;;;;2.97;83.10;100049.00;4988051;28;20029;-85
2022/01/28 08:08:26;;;;;;;19.02;3.95;;;;;;;2.93;82.90;100039.78;5015624;28;20293;-86
2022/01/28 08:10:51;;;;;;;18.65;4.43;;;;;;;2.98;83.21;100050.66;5003587;28;20030;-88
2022/01/28 08:13:17;;;;;;;22.23;4.18;;;;;;;2.84;83.22;100040.81;5019113;28;20120;-86
2022/01/28 08:15:43;;;;;;;25.13;4.28;;;;;;;2.81;83.19;100037.69;5002281;28;20025;-86
2022/01/28 08:18:09;;;;;;;19.70;4.93;;;;;;;2.96;83.03;100055.28;4986823;28;20026;-86
2022/01/28 08:20:38;;;;;;;17.75;4.68;;;;;;;2.95;82.74;100064.16;5003979;28;20061;-86
2022/01/28 08:23:04;;;;;;;20.10;5.68;;;;;;;2.64;82.72;100010.56;5002957;28;20041;-85
2022/01/28 08:25:32;;;;;;;26.80;4.57;;;;;;;3.00;82.53;100079.47;4980716;28;20034;-86
2022/01/28 08:27:58;;;;;;;24.90;4.22;;;;;;;3.00;82.73;100071.56;5031384;28;20157;-86
2022/01/28 08:30:25;;;;;;;18.33;4.68;;;;;;;3.00;82.45;100066.28;5003833;28;20045;-86
2022/01/28 08:32:51;;;;;;;23.63;4.22;;;;;;;3.00;82.34;100068.94;4997623;28;20009;-87
2022/01/28 08:35:24;;;;;;;26.23;5.47;;;;;;;3.00;82.34;100069.75;4989031;28;20010;-86
2022/01/28 08:37:50;;;;;;;17.52;4.13;;;;;;;3.02;81.88;100072.22;5016085;28;20048;-87
2022/01/28 08:40:16;;;;;;;21.08;4.13;;;;;;;3.03;82.17;100072.06;5011907;28;20481;-86
2022/01/28 08:42:42;;;;;;;15.52;4.13;;;;;;;3.05;82.31;100090.34;5022561;28;20512;-88
2022/01/28 08:45:08;;;;;;;22.48;4.40;;;;;;;3.06;82.25;100078.78;4995852;28;20053;-87
2022/01/28 08:47:33;;;;;;;20.95;5.47;;;;;;;3.03;81.65;100076.53;4999097;28;20061;-88
2022/01/28 08:49:58;;;;;;;20.50;4.53;;;;;;;2.95;81.96;100048.34;4990125;28;20101;-88
2022/01/28 08:52:24;;;;;;;19.42;4.07;;;;;;;3.11;81.61;100083.56;4983720;28;20029;-88
2022/01/28 08:54:49;;;;;;;21.98;4.57;;;;;;;3.10;81.51;100092.47;5000884;28;20038;-88
2022/01/28 08:57:15;;;;;;;18.98;4.50;;;;;;;3.04;81.53;100086.88;4980909;28;20037;-88
2022/01/28 09:00:23;;;;;;;18.40;4.57;;;;;;;3.12;81.79;100085.22;4998641;28;20037;-89
2022/01/28 09:02:53;;;;;;;24.58;4.97;;;;;;;3.08;81.38;100090.00;4983047;28;20070;-88
2022/01/28 09:05:19;;;;;;;25.27;5.00;;;;;;;3.14;81.39;100104.34;4999516;23;20043;-85
2022/01/28 09:07:44;;;;;;;20.83;4.82;;;;;;;3.13;81.48;100087.69;5022504;28;20108;-86
2022/01/28 09:10:18;;;;;;;25.83;5.03;;;;;;;3.14;81.53;100093.78;5005741;28;20202;-84
2022/01/28 09:13:37;;;;;;;19.38;5.10;;;;;;;3.14;81.37;100096.41;5003231;28;20026;-84
2022/01/28 09:15:35;;;;;;;20.42;4.15;;;;;;;3.14;81.90;100093.78;5002818;28;20046;-83
2022/01/28 09:18:00;;;;;;;16.40;4.00;;;;;;;3.14;81.61;100088.50;5005405;28;20044;-84
2022/01/28 09:20:27;;;;;;;19.00;4.88;;;;;;;3.14;81.54;100099.06;4994560;28;20033;-84
2022/01/28 09:22:53;;;;;;;25.17;5.03;;;;;;;3.15;81.60;100098.88;5021623;28;20064;-85
2022/01/28 09:25:18;;;;;;;18.40;4.97;;;;;;;3.15;81.55;100105.97;5007996;28;20022;-83
2022/01/28 09:27:43;;;;;;;30.05;5.43;;;;;;;3.11;81.73;100105.50;4985470;28;20052;-83
2022/01/28 09:30:09;;;;;;;25.90;5.05;;;;;;;3.17;81.60;100125.91;5003139;28;20030;-83
2022/01/28 09:32:35;;;;;;;26.05;5.22;;;;;;;3.19;81.33;100123.91;4997308;28;20055;-84
2022/01/28 09:35:02;;;;;;;19.88;4.22;;;;;;;3.21;81.83;100139.59;4998452;28;20561;-83
2022/01/28 09:37:28;;;;;;;26.05;5.10;;;;;;;3.24;81.42;100136.59;4997184;28;20116;-83
2022/01/28 09:39:53;;;;;;;26.42;6.95;;;;;;;3.25;81.07;100125.06;5000050;28;20486;-83
2022/01/28 09:42:21;;;;;;;26.20;4.53;;;;;;;3.26;81.18;100135.44;4999924;28;20095;-83
2022/01/28 09:44:47;;;;;;;18.13;4.00;;;;;;;3.30;81.50;100141.22;4993082;28;20097;-83
2022/01/28 09:47:12;;;;;;;32.53;6.93;;;;;;;3.33;81.11;100154.06;4992337;28;20068;-83
2022/01/28 09:49:40;;;;;;;35.15;5.95;;;;;;;3.33;81.02;100151.41;4986893;28;20120;-84
2022/01/28 09:52:08;;;;;;;32.58;5.18;;;;;;;3.34;80.64;100147.81;5000173;28;20040;-83
2022/01/28 09:54:34;;;;;;;28.50;7.72;;;;;;;3.32;79.90;100157.72;5012002;28;20025;-84
2022/01/28 09:57:04;;;;;;;16.92;4.63;;;;;;;3.35;81.00;100160.81;5000907;28;20588;-84
2022/01/28 09:59:31;;;;;;;22.38;4.60;;;;;;;3.35;80.79;100158.19;5001462;28;20037;-83
2022/01/28 10:01:56;;;;;;;32.17;5.60;;;;;;;3.38;81.26;100175.50;5000380;28;20537;-83
2022/01/28 10:04:22;;;;;;;20.30;5.53;;;;;;;3.39;80.96;100175.31;5004311;28;20058;-84
2022/01/28 10:06:48;;;;;;;26.70;5.60;;;;;;;3.41;81.57;100173.31;5008239;28;20034;-84
2022/01/28 10:09:17;;;;;;;16.95;4.63;;;;;;;3.42;81.68;100185.53;5012079;28;20021;-83
2022/01/28 10:11:45;;;;;;;18.25;4.28;;;;;;;3.44;81.44;100175.63;5001178;28;20040;-83
2022/01/28 10:14:21;;;;;;;16.08;4.57;;;;;;;3.47;81.74;100185.03;4983227;28;20029;-83
2022/01/28 10:17:01;;;;;;;21.17;5.55;;;;;;;3.48;81.40;100176.94;5016266;28;20086;-83
2022/01/28 10:19:37;;;;;;;21.65;4.45;;;;;;;3.50;81.68;100177.59;4992194;28;20029;-83
2022/01/28 10:22:03;;;;;;;21.50;5.53;;;;;;;3.51;82.07;100178.41;5012775;28;20025;-83
2022/01/28 10:24:28;;;;;;;15.15;4.30;;;;;;;3.53;81.99;100177.25;4997423;28;20033;-83
2022/01/28 10:27:08;;;;;;;23.52;5.05;;;;;;;3.55;81.64;100185.81;5000524;28;20029;-83
2022/01/28 10:29:35;;;;;;;13.85;4.40;;;;;;;3.59;81.56;100191.56;5010894;28;20026;-83
2022/01/28 10:32:03;;;;;;;22.00;5.82;;;;;;;3.51;82.03;100176.59;5007203;28;20109;-84
2022/01/28 10:34:37;;;;;;;16.63;4.72;;;;;;;3.32;81.53;100147.94;5036349;28;20107;-84
2022/01/28 10:37:17;;;;;;;23.60;5.65;;;;;;;3.30;81.41;100147.31;5045769;28;20025;-84
2022/01/28 10:39:48;;;;;;;17.08;4.28;;;;;;;3.39;81.09;100171.84;5029410;28;20028;-84
2022/01/28 10:42:20;;;;;;;17.20;4.88;;;;;;;3.52;81.38;100180.88;5010491;28;20029;-83
2022/01/28 10:44:57;;;;;;;25.13;4.68;;;;;;;3.61;81.06;100200.13;5015089;28;20060;-84
2022/01/28 10:47:40;;;;;;;31.70;5.60;;;;;;;3.59;81.62;100199.50;5000673;28;20032;-82
2022/01/28 10:50:34;;;;;;;21.75;6.18;;;;;;;3.61;81.46;100192.22;5008987;28;20049;-83
2022/01/28 10:53:11;;;;;;;18.40;3.88;;;;;;;3.45;81.40;100168.53;5016308;28;20052;-83
2022/01/28 10:55:44;;;;;;;17.80;4.47;;;;;;;3.61;81.49;100193.06;5014719;28;20033;-83
2022/01/28 10:58:16;;;;;;;17.25;3.92;;;;;;;3.62;81.16;100175.41;5016840;28;20035;-83
2022/01/28 11:00:46;;;;;;;21.83;5.65;;;;;;;3.65;81.65;100175.88;4999524;28;20136;-82
2022/01/28 11:03:13;;;;;;;27.38;4.35;;;;;;;3.67;81.82;100173.88;4982632;28;20081;-83
2022/01/28 11:05:39;;;;;;;29.77;4.40;;;;;;;3.68;81.66;100177.34;5011253;28;20072;-83
2022/01/28 11:08:07;;;;;;;15.40;4.45;;;;;;;3.66;81.17;100196.00;4999080;28;20041;-83
2022/01/28 11:10:34;;;;;;;15.55;4.55;;;;;;;3.50;81.58;100163.56;5003901;28;20045;-83
2022/01/28 11:13:01;;;;;;;25.00;4.72;;;;;;;3.64;80.71;100187.44;5001460;28;20485;-82
2022/01/28 11:15:28;;;;;;;22.70;5.40;;;;;;;3.68;81.21;100191.38;5001559;28;20087;-83
2022/01/28 11:17:54;;;;;;;20.40;4.80;;;;;;;3.59;80.25;100173.09;5009391;28;20424;-83
2022/01/28 11:20:28;;;;;;;21.17;5.30;;;;;;;3.66;79.97;100174.88;5001502;28;20033;-83
2022/01/28 11:23:19;;;;;;;21.40;4.90;;;;;;;3.74;80.04;100179.28;4999614;28;20025;-84
2022/01/28 11:26:23;;;;;;;21.88;4.55;;;;;;;3.75;79.97;100180.97;5009356;28;20545;-84
2022/01/28 11:28:56;;;;;;;18.63;4.38;;;;;;;3.66;79.95;100163.50;5030540;28;20045;-83
2022/01/28 11:31:41;;;;;;;25.33;5.35;;;;;;;3.79;78.71;100182.25;4983459;28;20073;-83
2022/01/28 11:34:21;;;;;;;22.40;4.70;;;;;;;3.82;78.94;100184.56;5004012;28;20032;-83
2022/01/28 11:36:46;;;;;;;27.80;5.90;;;;;;;3.88;79.06;100183.88;5014682;28;20117;-83
2022/01/28 11:39:30;;;;;;;15.25;3.78;;;;;;;3.94;78.90;100195.53;5015052;28;20497;-83
2022/01/28 11:42:01;;;;;;;18.05;4.57;;;;;;;3.99;78.73;100201.97;5014961;28;20096;-84
2022/01/28 11:44:51;;;;;;;27.75;5.47;;;;;;;4.03;78.97;100195.34;5004702;28;20045;-84
2022/01/28 11:47:35;;;;;;;35.67;5.30;;;;;;;4.07;78.37;100194.00;4999331;28;20029;-83
2022/01/28 11:50:08;;;;;;;20.73;4.75;;;;;;;4.11;78.53;100200.56;5008914;28;20033;-83
2022/01/28 11:52:48;;;;;;;26.60;4.40;;;;;;;4.13;78.23;100203.84;5001056;28;20033;-84
2022/01/28 11:55:28;;;;;;;24.60;4.82;;;;;;;4.17;78.54;100212.28;5003909;28;20030;-83
2022/01/28 11:58:05;;;;;;;21.10;4.90;;;;;;;4.20;78.39;100199.53;5011422;28;20021;-83
2022/01/28 12:00:41;;;;;;;17.85;4.65;;;;;;;4.06;78.77;100181.78;5019471;28;20073;-83
2022/01/28 12:03:20;;;;;;;16.75;4.18;;;;;;;4.28;79.27;100196.81;5001163;28;20084;-83
2022/01/28 12:08:16;;;;;;;19.15;4.18;;;;;;;4.31;78.46;100209.69;5021985;28;20120;-83
2022/01/28 12:10:45;;;;;;;19.77;4.25;;;;;;;4.32;78.38;100208.72;5006712;28;20404;-84
2022/01/28 12:13:23;;;;;;;23.50;5.43;;;;;;;4.34;78.43;100209.38;4992165;28;20057;-84
2022/01/28 12:16:02;;;;;;;19.85;4.25;;;;;;;4.36;78.04;100215.28;4971200;28;20434;-84
2022/01/28 12:18:53;;;;;;;16.80;3.95;;;;;;;4.36;77.44;100220.59;4980489;28;20034;-83
2022/01/28 12:21:22;;;;;;;25.55;6.15;;;;;;;4.35;76.82;100231.31;4970016;28;20076;-84
2022/01/28 12:24:24;;;;;;;24.90;4.93;;;;;;;4.36;76.44;100222.41;4974349;28;20034;-83
2022/01/28 12:27:05;;;;;;;15.25;4.68;;;;;;;4.34;76.50;100225.22;4980987;28;20720;-83
2022/01/28 12:29:42;;;;;;;20.58;4.25;;;;;;;4.07;75.89;100178.13;4973098;28;20102;-82
2022/01/28 12:32:08;;;;;;;21.83;4.43;;;;;;;4.36;76.25;100227.69;4982101;28;20030;-83
2022/01/28 12:34:56;;;;;;;19.40;5.28;;;;;;;4.36;76.49;100232.97;4952169;28;20026;-84
2022/01/28 12:37:28;;;;;;;26.73;4.78;;;;;;;4.31;76.36;100236.13;4980618;28;20573;-82
2022/01/28 12:40:02;;;;;;;25.83;5.82;;;;;;;4.38;75.97;100242.38;4996577;28;20034;-85
2022/01/28 12:42:43;;;;;;;23.30;4.65;;;;;;;4.39;76.08;100238.72;5062865;23;20045;-87
2022/01/28 12:45:15;;;;;;;30.08;5.22;;;;;;;4.36;76.08;100236.44;4969144;28;20030;-86
2022/01/28 13:11:56;;;;;;;18.67;3.97;;;;;;;4.42;74.81;100256.88;5020038;28;20180;-87
2022/01/28 13:14:32;;;;;;;22.13;5.22;;;;;;;4.35;75.14;100245.34;5002762;28;20036;-87
2022/01/28 13:16:58;;;;;;;;;;;;;;;4.38;75.14;100260.03;5004701;28;20061;-86
2022/01/28 13:19:24;;;;;;;20.07;4.63;;;;;;;4.36;75.52;100265.50;5001281;28;19963;-86
2022/01/28 13:21:50;;;;;;;19.10;4.60;;;;;;;4.37;75.96;100266.31;5005084;28;20036;-87
2022/01/28 13:24:19;;;;;;;26.48;7.28;;;;;;;4.39;76.01;100265.16;5014331;28;20110;-87
2022/01/28 13:27:10;;;;;;;24.13;5.35;;;;;;;4.38;76.42;100271.44;5006625;28;20036;-87
2022/01/28 13:29:51;;;;;;;20.27;4.43;;;;;;;4.41;76.42;100265.00;5003248;28;20120;-87
2022/01/28 13:32:25;;;;;;;23.15;5.50;;;;;;;4.42;75.62;100253.41;5023599;28;20033;-87
2022/01/28 13:34:55;;;;;;;18.05;3.92;;;;;;;4.43;75.30;100265.63;5004321;28;20028;-87